sensor_id;sensor_type;location;lat;lon;timestamp;P1;durP1;ratioP1;P2;durP2;ratioP2
64457;SDS011;58438;51.200;7.252;2023-02-19T00:01:57;29.80;;;12.32;;
64457;SDS011;58438;51.200;7.252;2023-02-19T00:04:44;36.10;;;13.20;;
64457;SDS011;58438;51.200;7.252;2023-02-19T00:07:32;33.88;;;14.02;;
64457;SDS011;58438;51.200;7.252;2023-02-19T00:10:21;32.35;;;11.27;;
64457;SDS011;58438;51.200;7.252;2023-02-19T00:13:08;34.38;;;14.52;;
64457;SDS011;58438;51.200;7.252;2023-02-19T00:15:56;36.03;;;13.98;;
64457;SDS011;58438;51.200;7.252;2023-02-19T00:18:44;38.33;;;13.88;;
64457;SDS011;58438;51.200;7.252;2023-02-19T00:21:33;33.72;;;12.85;;
64457;SDS011;58438;51.200;7.252;2023-02-19T00:24:20;37.33;;;12.73;;
64457;SDS011;58438;51.200;7.252;2023-02-19T00:27:09;30.77;;;12.52;;
64457;SDS011;58438;51.200;7.252;2023-02-19T00:29:57;29.73;;;11.27;;
64457;SDS011;58438;51.200;7.252;2023-02-19T00:32:48;25.23;;;9.77;;
64457;SDS011;58438;51.200;7.252;2023-02-19T00:35:36;23.83;;;9.38;;
64457;SDS011;58438;51.200;7.252;2023-02-19T00:38:24;24.92;;;11.00;;
64457;SDS011;58438;51.200;7.252;2023-02-19T00:41:12;30.13;;;11.77;;
64457;SDS011;58438;51.200;7.252;2023-02-19T00:44:09;32.70;;;10.68;;
64457;SDS011;58438;51.200;7.252;2023-02-19T00:46:56;30.98;;;10.70;;
64457;SDS011;58438;51.200;7.252;2023-02-19T00:49:47;27.33;;;11.02;;
64457;SDS011;58438;51.200;7.252;2023-02-19T00:52:34;22.85;;;9.60;;
64457;SDS011;58438;51.200;7.252;2023-02-19T00:55:22;25.25;;;9.18;;
64457;SDS011;58438;51.200;7.252;2023-02-19T00:58:09;18.23;;;8.85;;
64457;SDS011;58438;51.200;7.252;2023-02-19T01:00:59;23.55;;;8.80;;
64457;SDS011;58438;51.200;7.252;2023-02-19T01:03:46;25.83;;;10.00;;
64457;SDS011;58438;51.200;7.252;2023-02-19T01:06:35;25.50;;;10.38;;
64457;SDS011;58438;51.200;7.252;2023-02-19T01:09:22;26.48;;;10.68;;
64457;SDS011;58438;51.200;7.252;2023-02-19T01:12:11;25.92;;;10.05;;
64457;SDS011;58438;51.200;7.252;2023-02-19T01:15:00;26.30;;;10.55;;
64457;SDS011;58438;51.200;7.252;2023-02-19T01:17:53;25.52;;;10.25;;
64457;SDS011;58438;51.200;7.252;2023-02-19T01:20:44;27.13;;;11.52;;
64457;SDS011;58438;51.200;7.252;2023-02-19T01:23:35;33.03;;;13.07;;
64457;SDS011;58438;51.200;7.252;2023-02-19T01:26:25;36.22;;;14.70;;
64457;SDS011;58438;51.200;7.252;2023-02-19T01:29:18;38.88;;;15.32;;
64457;SDS011;58438;51.200;7.252;2023-02-19T01:32:08;38.40;;;15.07;;
64457;SDS011;58438;51.200;7.252;2023-02-19T01:35:00;43.35;;;17.30;;
64457;SDS011;58438;51.200;7.252;2023-02-19T01:37:50;46.92;;;17.40;;
64457;SDS011;58438;51.200;7.252;2023-02-19T01:40:41;50.08;;;17.88;;
64457;SDS011;58438;51.200;7.252;2023-02-19T01:43:31;52.53;;;18.75;;
64457;SDS011;58438;51.200;7.252;2023-02-19T01:46:24;46.10;;;16.45;;
64457;SDS011;58438;51.200;7.252;2023-02-19T01:49:17;51.45;;;17.73;;
64457;SDS011;58438;51.200;7.252;2023-02-19T01:52:13;48.40;;;16.65;;
64457;SDS011;58438;51.200;7.252;2023-02-19T01:55:06;50.03;;;17.92;;
64457;SDS011;58438;51.200;7.252;2023-02-19T01:58:00;44.80;;;16.15;;
64457;SDS011;58438;51.200;7.252;2023-02-19T02:00:51;44.53;;;17.38;;
64457;SDS011;58438;51.200;7.252;2023-02-19T02:03:42;44.40;;;16.42;;
64457;SDS011;58438;51.200;7.252;2023-02-19T02:06:37;44.87;;;16.47;;
64457;SDS011;58438;51.200;7.252;2023-02-19T02:09:33;46.00;;;16.55;;
64457;SDS011;58438;51.200;7.252;2023-02-19T02:12:51;37.22;;;13.75;;
64457;SDS011;58438;51.200;7.252;2023-02-19T02:15:47;44.13;;;15.57;;
64457;SDS011;58438;51.200;7.252;2023-02-19T02:18:46;46.58;;;17.25;;
64457;SDS011;58438;51.200;7.252;2023-02-19T02:21:48;50.38;;;17.38;;
64457;SDS011;58438;51.200;7.252;2023-02-19T02:24:55;53.13;;;18.88;;
64457;SDS011;58438;51.200;7.252;2023-02-19T02:28:00;50.28;;;17.42;;
64457;SDS011;58438;51.200;7.252;2023-02-19T02:31:02;46.55;;;15.85;;
64457;SDS011;58438;51.200;7.252;2023-02-19T02:33:55;47.42;;;16.10;;
64457;SDS011;58438;51.200;7.252;2023-02-19T02:36:48;41.42;;;15.95;;
64457;SDS011;58438;51.200;7.252;2023-02-19T02:39:40;41.17;;;14.35;;
64457;SDS011;58438;51.200;7.252;2023-02-19T02:42:27;43.60;;;15.18;;
64457;SDS011;58438;51.200;7.252;2023-02-19T02:45:25;42.78;;;14.52;;
64457;SDS011;58438;51.200;7.252;2023-02-19T02:48:25;42.03;;;14.88;;
64457;SDS011;58438;51.200;7.252;2023-02-19T02:51:16;35.05;;;12.65;;
64457;SDS011;58438;51.200;7.252;2023-02-19T02:54:09;38.60;;;13.07;;
64457;SDS011;58438;51.200;7.252;2023-02-19T02:57:17;42.55;;;15.27;;
64457;SDS011;58438;51.200;7.252;2023-02-19T03:00:06;35.42;;;12.73;;
64457;SDS011;58438;51.200;7.252;2023-02-19T03:02:54;37.22;;;14.65;;
64457;SDS011;58438;51.200;7.252;2023-02-19T03:05:43;42.67;;;15.95;;
64457;SDS011;58438;51.200;7.252;2023-02-19T03:08:38;32.75;;;10.32;;
64457;SDS011;58438;51.200;7.252;2023-02-19T03:11:29;29.58;;;10.50;;
64457;SDS011;58438;51.200;7.252;2023-02-19T03:14:36;32.33;;;10.80;;
64457;SDS011;58438;51.200;7.252;2023-02-19T03:17:45;32.13;;;11.35;;
64457;SDS011;58438;51.200;7.252;2023-02-19T03:20:55;35.33;;;13.43;;
64457;SDS011;58438;51.200;7.252;2023-02-19T03:23:44;38.00;;;13.65;;
64457;SDS011;58438;51.200;7.252;2023-02-19T03:26:50;44.78;;;13.15;;
64457;SDS011;58438;51.200;7.252;2023-02-19T03:29:39;38.80;;;14.80;;
64457;SDS011;58438;51.200;7.252;2023-02-19T03:32:29;45.38;;;15.18;;
64457;SDS011;58438;51.200;7.252;2023-02-19T03:35:20;45.28;;;15.05;;
64457;SDS011;58438;51.200;7.252;2023-02-19T03:38:12;52.15;;;16.65;;
64457;SDS011;58438;51.200;7.252;2023-02-19T03:41:04;34.50;;;13.40;;
64457;SDS011;58438;51.200;7.252;2023-02-19T03:43:59;47.55;;;16.00;;
64457;SDS011;58438;51.200;7.252;2023-02-19T03:46:54;37.38;;;15.48;;
64457;SDS011;58438;51.200;7.252;2023-02-19T03:49:48;46.95;;;16.55;;
64457;SDS011;58438;51.200;7.252;2023-02-19T03:52:45;47.58;;;17.45;;
64457;SDS011;58438;51.200;7.252;2023-02-19T03:55:42;39.92;;;15.60;;
64457;SDS011;58438;51.200;7.252;2023-02-19T03:58:39;43.45;;;17.60;;
64457;SDS011;58438;51.200;7.252;2023-02-19T04:01:34;43.25;;;15.00;;
64457;SDS011;58438;51.200;7.252;2023-02-19T04:07:17;42.92;;;14.32;;
64457;SDS011;58438;51.200;7.252;2023-02-19T04:10:05;42.58;;;15.68;;
64457;SDS011;58438;51.200;7.252;2023-02-19T04:12:56;39.72;;;15.55;;
64457;SDS011;58438;51.200;7.252;2023-02-19T04:15:47;44.72;;;15.15;;
64457;SDS011;58438;51.200;7.252;2023-02-19T04:18:37;44.50;;;16.25;;
64457;SDS011;58438;51.200;7.252;2023-02-19T04:21:27;39.20;;;14.88;;
64457;SDS011;58438;51.200;7.252;2023-02-19T04:24:18;36.33;;;12.88;;
64457;SDS011;58438;51.200;7.252;2023-02-19T04:27:09;37.65;;;14.88;;
64457;SDS011;58438;51.200;7.252;2023-02-19T04:29:58;38.95;;;14.80;;
64457;SDS011;58438;51.200;7.252;2023-02-19T04:32:45;43.28;;;16.25;;
64457;SDS011;58438;51.200;7.252;2023-02-19T04:35:33;43.92;;;15.73;;
64457;SDS011;58438;51.200;7.252;2023-02-19T04:38:21;48.22;;;17.13;;
64457;SDS011;58438;51.200;7.252;2023-02-19T04:41:08;49.47;;;18.08;;
64457;SDS011;58438;51.200;7.252;2023-02-19T04:43:57;45.08;;;15.45;;
64457;SDS011;58438;51.200;7.252;2023-02-19T04:46:46;39.50;;;13.93;;
64457;SDS011;58438;51.200;7.252;2023-02-19T04:49:33;47.83;;;15.35;;
64457;SDS011;58438;51.200;7.252;2023-02-19T04:52:21;34.78;;;13.60;;
64457;SDS011;58438;51.200;7.252;2023-02-19T04:55:08;40.50;;;13.02;;
64457;SDS011;58438;51.200;7.252;2023-02-19T04:57:56;34.78;;;13.93;;
64457;SDS011;58438;51.200;7.252;2023-02-19T05:00:43;36.58;;;15.25;;
64457;SDS011;58438;51.200;7.252;2023-02-19T05:03:32;39.78;;;14.70;;
64457;SDS011;58438;51.200;7.252;2023-02-19T05:06:20;47.85;;;15.85;;
64457;SDS011;58438;51.200;7.252;2023-02-19T05:09:08;45.80;;;14.98;;
64457;SDS011;58438;51.200;7.252;2023-02-19T05:11:56;35.50;;;14.45;;
64457;SDS011;58438;51.200;7.252;2023-02-19T05:14:43;36.45;;;11.85;;
64457;SDS011;58438;51.200;7.252;2023-02-19T05:17:31;31.30;;;11.98;;
64457;SDS011;58438;51.200;7.252;2023-02-19T05:20:21;27.15;;;11.55;;
64457;SDS011;58438;51.200;7.252;2023-02-19T05:23:08;38.20;;;12.73;;
64457;SDS011;58438;51.200;7.252;2023-02-19T05:25:56;37.25;;;12.93;;
64457;SDS011;58438;51.200;7.252;2023-02-19T05:28:43;35.97;;;13.60;;
64457;SDS011;58438;51.200;7.252;2023-02-19T05:31:31;34.30;;;12.68;;
64457;SDS011;58438;51.200;7.252;2023-02-19T05:34:19;39.10;;;14.20;;
64457;SDS011;58438;51.200;7.252;2023-02-19T05:37:08;50.30;;;15.60;;
64457;SDS011;58438;51.200;7.252;2023-02-19T05:39:56;42.20;;;13.23;;
64457;SDS011;58438;51.200;7.252;2023-02-19T05:42:43;45.75;;;15.90;;
64457;SDS011;58438;51.200;7.252;2023-02-19T05:45:31;46.15;;;15.43;;
64457;SDS011;58438;51.200;7.252;2023-02-19T05:48:19;42.67;;;15.68;;
64457;SDS011;58438;51.200;7.252;2023-02-19T05:51:08;45.63;;;15.32;;
64457;SDS011;58438;51.200;7.252;2023-02-19T05:53:59;35.30;;;14.65;;
64457;SDS011;58438;51.200;7.252;2023-02-19T05:56:46;36.30;;;14.30;;
64457;SDS011;58438;51.200;7.252;2023-02-19T05:59:33;46.72;;;15.48;;
64457;SDS011;58438;51.200;7.252;2023-02-19T06:02:21;43.95;;;15.27;;
64457;SDS011;58438;51.200;7.252;2023-02-19T06:05:08;43.38;;;16.13;;
64457;SDS011;58438;51.200;7.252;2023-02-19T06:07:56;38.72;;;12.80;;
64457;SDS011;58438;51.200;7.252;2023-02-19T06:10:45;38.58;;;14.90;;
64457;SDS011;58438;51.200;7.252;2023-02-19T06:13:32;35.80;;;13.82;;
64457;SDS011;58438;51.200;7.252;2023-02-19T06:16:20;38.33;;;13.65;;
64457;SDS011;58438;51.200;7.252;2023-02-19T06:19:08;30.10;;;13.20;;
64457;SDS011;58438;51.200;7.252;2023-02-19T06:21:56;34.95;;;13.45;;
64457;SDS011;58438;51.200;7.252;2023-02-19T06:24:43;31.77;;;11.88;;
64457;SDS011;58438;51.200;7.252;2023-02-19T06:27:32;31.58;;;12.70;;
64457;SDS011;58438;51.200;7.252;2023-02-19T06:30:22;36.03;;;11.68;;
64457;SDS011;58438;51.200;7.252;2023-02-19T06:33:10;24.08;;;10.02;;
64457;SDS011;58438;51.200;7.252;2023-02-19T06:35:57;27.00;;;11.40;;
64457;SDS011;58438;51.200;7.252;2023-02-19T06:38:46;30.30;;;12.43;;
64457;SDS011;58438;51.200;7.252;2023-02-19T06:41:34;30.35;;;12.02;;
64457;SDS011;58438;51.200;7.252;2023-02-19T06:44:23;36.58;;;13.93;;
64457;SDS011;58438;51.200;7.252;2023-02-19T06:47:10;31.35;;;12.20;;
64457;SDS011;58438;51.200;7.252;2023-02-19T06:49:58;33.65;;;13.02;;
64457;SDS011;58438;51.200;7.252;2023-02-19T06:52:46;36.47;;;12.93;;
64457;SDS011;58438;51.200;7.252;2023-02-19T06:55:33;32.67;;;12.43;;
64457;SDS011;58438;51.200;7.252;2023-02-19T06:58:21;24.65;;;10.48;;
64457;SDS011;58438;51.200;7.252;2023-02-19T07:01:11;27.23;;;11.32;;
64457;SDS011;58438;51.200;7.252;2023-02-19T07:03:59;30.80;;;11.73;;
64457;SDS011;58438;51.200;7.252;2023-02-19T07:06:47;25.48;;;10.20;;
64457;SDS011;58438;51.200;7.252;2023-02-19T07:09:34;28.45;;;11.00;;
64457;SDS011;58438;51.200;7.252;2023-02-19T07:12:22;27.10;;;10.38;;
64457;SDS011;58438;51.200;7.252;2023-02-19T07:15:09;26.42;;;10.43;;
64457;SDS011;58438;51.200;7.252;2023-02-19T07:17:59;25.25;;;10.63;;
64457;SDS011;58438;51.200;7.252;2023-02-19T07:20:46;27.75;;;9.85;;
64457;SDS011;58438;51.200;7.252;2023-02-19T07:23:34;20.42;;;9.45;;
64457;SDS011;58438;51.200;7.252;2023-02-19T07:26:22;21.17;;;9.05;;
64457;SDS011;58438;51.200;7.252;2023-02-19T07:29:09;20.95;;;9.57;;
64457;SDS011;58438;51.200;7.252;2023-02-19T07:31:57;23.15;;;9.68;;
64457;SDS011;58438;51.200;7.252;2023-02-19T07:34:46;23.42;;;10.35;;
64457;SDS011;58438;51.200;7.252;2023-02-19T07:37:33;26.90;;;10.95;;
64457;SDS011;58438;51.200;7.252;2023-02-19T07:40:21;23.25;;;9.38;;
64457;SDS011;58438;51.200;7.252;2023-02-19T07:43:09;27.48;;;10.48;;
64457;SDS011;58438;51.200;7.252;2023-02-19T07:45:56;30.00;;;10.93;;
64457;SDS011;58438;51.200;7.252;2023-02-19T07:48:44;33.92;;;12.60;;
64457;SDS011;58438;51.200;7.252;2023-02-19T07:51:33;22.67;;;9.32;;
64457;SDS011;58438;51.200;7.252;2023-02-19T07:54:21;23.35;;;9.77;;
64457;SDS011;58438;51.200;7.252;2023-02-19T07:57:08;28.75;;;11.32;;
64457;SDS011;58438;51.200;7.252;2023-02-19T07:59:55;26.92;;;11.05;;
64457;SDS011;58438;51.200;7.252;2023-02-19T08:02:43;30.48;;;12.18;;
64457;SDS011;58438;51.200;7.252;2023-02-19T08:05:46;29.85;;;11.65;;
64457;SDS011;58438;51.200;7.252;2023-02-19T08:08:36;35.45;;;11.63;;
64457;SDS011;58438;51.200;7.252;2023-02-19T08:11:24;31.92;;;12.32;;
64457;SDS011;58438;51.200;7.252;2023-02-19T08:17:16;24.65;;;10.48;;
64457;SDS011;58438;51.200;7.252;2023-02-19T08:20:03;28.98;;;11.43;;
64457;SDS011;58438;51.200;7.252;2023-02-19T08:22:51;24.48;;;9.63;;
64457;SDS011;58438;51.200;7.252;2023-02-19T08:25:40;29.60;;;11.85;;
64457;SDS011;58438;51.200;7.252;2023-02-19T08:28:29;30.67;;;10.75;;
64457;SDS011;58438;51.200;7.252;2023-02-19T08:31:17;35.25;;;11.88;;
64457;SDS011;58438;51.200;7.252;2023-02-19T08:34:04;38.72;;;13.98;;
64457;SDS011;58438;51.200;7.252;2023-02-19T08:36:52;42.72;;;14.45;;
64457;SDS011;58438;51.200;7.252;2023-02-19T08:39:39;38.22;;;14.73;;
64457;SDS011;58438;51.200;7.252;2023-02-19T08:42:28;44.35;;;16.50;;
64457;SDS011;58438;51.200;7.252;2023-02-19T08:45:16;31.40;;;13.70;;
64457;SDS011;58438;51.200;7.252;2023-02-19T08:48:04;41.47;;;14.70;;
64457;SDS011;58438;51.200;7.252;2023-02-19T08:50:52;30.92;;;12.50;;
64457;SDS011;58438;51.200;7.252;2023-02-19T08:53:41;38.85;;;13.82;;
64457;SDS011;58438;51.200;7.252;2023-02-19T08:56:28;35.00;;;12.57;;
64457;SDS011;58438;51.200;7.252;2023-02-19T08:59:17;40.03;;;14.55;;
64457;SDS011;58438;51.200;7.252;2023-02-19T09:02:05;33.42;;;12.38;;
64457;SDS011;58438;51.200;7.252;2023-02-19T09:04:54;35.30;;;12.38;;
64457;SDS011;58438;51.200;7.252;2023-02-19T09:07:42;28.10;;;12.00;;
64457;SDS011;58438;51.200;7.252;2023-02-19T09:10:29;23.73;;;10.05;;
64457;SDS011;58438;51.200;7.252;2023-02-19T09:13:17;23.83;;;10.60;;
64457;SDS011;58438;51.200;7.252;2023-02-19T09:16:06;30.50;;;11.07;;
64457;SDS011;58438;51.200;7.252;2023-02-19T09:18:54;28.55;;;12.20;;
64457;SDS011;58438;51.200;7.252;2023-02-19T09:21:42;27.05;;;11.30;;
64457;SDS011;58438;51.200;7.252;2023-02-19T09:24:30;26.33;;;9.95;;
64457;SDS011;58438;51.200;7.252;2023-02-19T09:27:18;23.38;;;11.05;;
64457;SDS011;58438;51.200;7.252;2023-02-19T09:30:06;25.13;;;9.88;;
64457;SDS011;58438;51.200;7.252;2023-02-19T09:32:55;31.50;;;11.00;;
64457;SDS011;58438;51.200;7.252;2023-02-19T09:35:43;26.55;;;10.48;;
64457;SDS011;58438;51.200;7.252;2023-02-19T09:38:30;31.70;;;10.45;;
64457;SDS011;58438;51.200;7.252;2023-02-19T09:41:27;30.25;;;10.95;;
64457;SDS011;58438;51.200;7.252;2023-02-19T09:44:17;26.08;;;10.57;;
64457;SDS011;58438;51.200;7.252;2023-02-19T09:47:13;32.30;;;12.27;;
64457;SDS011;58438;51.200;7.252;2023-02-19T09:50:06;25.95;;;10.60;;
64457;SDS011;58438;51.200;7.252;2023-02-19T09:52:55;29.52;;;13.45;;
64457;SDS011;58438;51.200;7.252;2023-02-19T09:55:45;32.28;;;13.18;;
64457;SDS011;58438;51.200;7.252;2023-02-19T09:58:33;25.77;;;10.88;;
64457;SDS011;58438;51.200;7.252;2023-02-19T10:01:22;26.40;;;10.30;;
64457;SDS011;58438;51.200;7.252;2023-02-19T10:04:12;26.52;;;11.15;;
64457;SDS011;58438;51.200;7.252;2023-02-19T10:07:01;32.35;;;14.32;;
64457;SDS011;58438;51.200;7.252;2023-02-19T10:09:50;27.15;;;11.90;;
64457;SDS011;58438;51.200;7.252;2023-02-19T10:12:45;39.80;;;20.98;;
64457;SDS011;58438;51.200;7.252;2023-02-19T10:15:36;35.35;;;15.10;;
64457;SDS011;58438;51.200;7.252;2023-02-19T10:18:28;27.85;;;12.52;;
64457;SDS011;58438;51.200;7.252;2023-02-19T10:21:20;30.65;;;15.25;;
64457;SDS011;58438;51.200;7.252;2023-02-19T10:24:13;30.73;;;11.93;;
64457;SDS011;58438;51.200;7.252;2023-02-19T10:27:02;21.52;;;11.35;;
64457;SDS011;58438;51.200;7.252;2023-02-19T10:29:53;19.55;;;8.98;;
64457;SDS011;58438;51.200;7.252;2023-02-19T10:32:40;21.70;;;8.40;;
64457;SDS011;58438;51.200;7.252;2023-02-19T10:35:52;21.05;;;9.07;;
64457;SDS011;58438;51.200;7.252;2023-02-19T10:38:44;21.55;;;7.93;;
64457;SDS011;58438;51.200;7.252;2023-02-19T10:41:35;18.23;;;7.25;;
64457;SDS011;58438;51.200;7.252;2023-02-19T10:44:30;23.90;;;8.43;;
64457;SDS011;58438;51.200;7.252;2023-02-19T10:47:21;13.45;;;6.03;;
64457;SDS011;58438;51.200;7.252;2023-02-19T10:50:15;18.98;;;6.55;;
64457;SDS011;58438;51.200;7.252;2023-02-19T10:53:07;19.63;;;8.90;;
64457;SDS011;58438;51.200;7.252;2023-02-19T10:56:09;28.33;;;10.45;;
64457;SDS011;58438;51.200;7.252;2023-02-19T10:58:59;34.00;;;13.68;;
64457;SDS011;58438;51.200;7.252;2023-02-19T11:02:02;33.95;;;15.65;;
64457;SDS011;58438;51.200;7.252;2023-02-19T11:05:04;41.47;;;17.25;;
64457;SDS011;58438;51.200;7.252;2023-02-19T11:08:02;44.42;;;15.68;;
64457;SDS011;58438;51.200;7.252;2023-02-19T11:10:49;47.53;;;20.27;;
64457;SDS011;58438;51.200;7.252;2023-02-19T11:13:37;46.30;;;17.75;;
64457;SDS011;58438;51.200;7.252;2023-02-19T11:16:38;42.70;;;16.95;;
64457;SDS011;58438;51.200;7.252;2023-02-19T11:19:28;32.72;;;15.23;;
64457;SDS011;58438;51.200;7.252;2023-02-19T11:25:17;31.65;;;12.50;;
64457;SDS011;58438;51.200;7.252;2023-02-19T11:28:18;33.22;;;12.65;;
64457;SDS011;58438;51.200;7.252;2023-02-19T11:31:14;27.08;;;12.32;;
64457;SDS011;58438;51.200;7.252;2023-02-19T11:34:24;33.60;;;12.68;;
64457;SDS011;58438;51.200;7.252;2023-02-19T11:37:16;33.38;;;12.98;;
64457;SDS011;58438;51.200;7.252;2023-02-19T11:40:04;23.17;;;9.90;;
64457;SDS011;58438;51.200;7.252;2023-02-19T11:42:52;26.67;;;11.60;;
64457;SDS011;58438;51.200;7.252;2023-02-19T11:45:46;28.30;;;12.30;;
64457;SDS011;58438;51.200;7.252;2023-02-19T11:48:38;26.20;;;10.07;;
64457;SDS011;58438;51.200;7.252;2023-02-19T11:51:39;31.13;;;12.00;;
64457;SDS011;58438;51.200;7.252;2023-02-19T11:54:45;25.75;;;11.10;;
64457;SDS011;58438;51.200;7.252;2023-02-19T11:57:39;23.88;;;9.93;;
64457;SDS011;58438;51.200;7.252;2023-02-19T12:00:27;21.10;;;10.07;;
64457;SDS011;58438;51.200;7.252;2023-02-19T12:03:27;19.10;;;8.70;;
64457;SDS011;58438;51.200;7.252;2023-02-19T12:06:25;25.23;;;9.15;;
64457;SDS011;58438;51.200;7.252;2023-02-19T12:09:34;19.20;;;8.27;;
64457;SDS011;58438;51.200;7.252;2023-02-19T12:12:32;17.92;;;8.82;;
64457;SDS011;58438;51.200;7.252;2023-02-19T12:15:36;19.92;;;8.48;;
64457;SDS011;58438;51.200;7.252;2023-02-19T12:18:41;20.55;;;7.80;;
64457;SDS011;58438;51.200;7.252;2023-02-19T12:21:43;22.40;;;10.13;;
64457;SDS011;58438;51.200;7.252;2023-02-19T12:24:46;20.95;;;8.63;;
64457;SDS011;58438;51.200;7.252;2023-02-19T12:28:08;16.73;;;7.13;;
64457;SDS011;58438;51.200;7.252;2023-02-19T12:31:13;21.00;;;9.60;;
64457;SDS011;58438;51.200;7.252;2023-02-19T12:34:19;17.67;;;7.88;;
64457;SDS011;58438;51.200;7.252;2023-02-19T12:37:21;12.45;;;5.70;;
64457;SDS011;58438;51.200;7.252;2023-02-19T12:40:21;10.70;;;4.35;;
64457;SDS011;58438;51.200;7.252;2023-02-19T12:43:18;46.47;;;24.25;;
64457;SDS011;58438;51.200;7.252;2023-02-19T12:46:07;11.52;;;5.95;;
64457;SDS011;58438;51.200;7.252;2023-02-19T12:49:04;14.73;;;6.72;;
64457;SDS011;58438;51.200;7.252;2023-02-19T12:51:57;10.40;;;5.55;;
64457;SDS011;58438;51.200;7.252;2023-02-19T12:54:48;9.65;;;5.13;;
64457;SDS011;58438;51.200;7.252;2023-02-19T12:57:42;10.30;;;5.38;;
64457;SDS011;58438;51.200;7.252;2023-02-19T13:00:30;9.48;;;4.93;;
64457;SDS011;58438;51.200;7.252;2023-02-19T13:03:21;8.98;;;4.85;;
64457;SDS011;58438;51.200;7.252;2023-02-19T13:06:19;12.38;;;5.20;;
64457;SDS011;58438;51.200;7.252;2023-02-19T13:09:17;15.30;;;5.38;;
64457;SDS011;58438;51.200;7.252;2023-02-19T13:12:10;14.07;;;5.95;;
64457;SDS011;58438;51.200;7.252;2023-02-19T13:15:01;11.40;;;5.93;;
64457;SDS011;58438;51.200;7.252;2023-02-19T13:17:50;13.20;;;5.72;;
64457;SDS011;58438;51.200;7.252;2023-02-19T13:20:38;17.23;;;7.57;;
64457;SDS011;58438;51.200;7.252;2023-02-19T13:23:25;16.13;;;6.82;;
64457;SDS011;58438;51.200;7.252;2023-02-19T13:26:49;15.73;;;6.78;;
64457;SDS011;58438;51.200;7.252;2023-02-19T13:29:45;14.98;;;6.68;;
64457;SDS011;58438;51.200;7.252;2023-02-19T13:32:43;12.25;;;7.05;;
64457;SDS011;58438;51.200;7.252;2023-02-19T13:38:46;20.88;;;8.02;;
64457;SDS011;58438;51.200;7.252;2023-02-19T13:41:36;12.98;;;6.47;;
64457;SDS011;58438;51.200;7.252;2023-02-19T13:44:27;13.27;;;6.22;;
64457;SDS011;58438;51.200;7.252;2023-02-19T13:50:44;15.45;;;7.90;;
64457;SDS011;58438;51.200;7.252;2023-02-19T13:53:48;14.63;;;6.55;;
64457;SDS011;58438;51.200;7.252;2023-02-19T13:59:32;18.48;;;8.40;;
64457;SDS011;58438;51.200;7.252;2023-02-19T14:02:24;13.55;;;7.22;;
64457;SDS011;58438;51.200;7.252;2023-02-19T14:05:17;14.75;;;6.85;;
64457;SDS011;58438;51.200;7.252;2023-02-19T14:08:45;17.92;;;7.80;;
64457;SDS011;58438;51.200;7.252;2023-02-19T14:14:51;32.65;;;15.25;;
64457;SDS011;58438;51.200;7.252;2023-02-19T14:17:40;35.50;;;16.50;;
64457;SDS011;58438;51.200;7.252;2023-02-19T14:20:42;23.65;;;12.77;;
64457;SDS011;58438;51.200;7.252;2023-02-19T14:23:31;23.27;;;9.57;;
64457;SDS011;58438;51.200;7.252;2023-02-19T14:26:19;15.98;;;9.10;;
64457;SDS011;58438;51.200;7.252;2023-02-19T14:29:07;17.85;;;8.05;;
64457;SDS011;58438;51.200;7.252;2023-02-19T14:32:00;18.60;;;7.10;;
64457;SDS011;58438;51.200;7.252;2023-02-19T14:34:51;19.95;;;8.65;;
64457;SDS011;58438;51.200;7.252;2023-02-19T14:37:40;17.10;;;7.88;;
64457;SDS011;58438;51.200;7.252;2023-02-19T14:40:31;19.13;;;8.80;;
64457;SDS011;58438;51.200;7.252;2023-02-19T14:43:23;20.65;;;8.20;;
64457;SDS011;58438;51.200;7.252;2023-02-19T14:46:14;20.80;;;10.32;;
64457;SDS011;58438;51.200;7.252;2023-02-19T14:49:11;17.55;;;8.88;;
64457;SDS011;58438;51.200;7.252;2023-02-19T14:52:04;20.60;;;9.02;;
64457;SDS011;58438;51.200;7.252;2023-02-19T14:54:58;22.17;;;8.98;;
64457;SDS011;58438;51.200;7.252;2023-02-19T14:57:53;24.00;;;9.65;;
64457;SDS011;58438;51.200;7.252;2023-02-19T15:00:42;22.83;;;9.77;;
64457;SDS011;58438;51.200;7.252;2023-02-19T15:03:31;21.50;;;9.35;;
64457;SDS011;58438;51.200;7.252;2023-02-19T15:06:19;18.77;;;9.45;;
64457;SDS011;58438;51.200;7.252;2023-02-19T15:09:08;21.85;;;9.38;;
64457;SDS011;58438;51.200;7.252;2023-02-19T15:11:57;24.17;;;9.60;;
64457;SDS011;58438;51.200;7.252;2023-02-19T15:14:47;21.52;;;9.80;;
64457;SDS011;58438;51.200;7.252;2023-02-19T15:17:36;20.27;;;8.75;;
64457;SDS011;58438;51.200;7.252;2023-02-19T15:20:28;21.38;;;9.18;;
64457;SDS011;58438;51.200;7.252;2023-02-19T15:23:19;23.75;;;10.20;;
64457;SDS011;58438;51.200;7.252;2023-02-19T15:26:14;25.38;;;9.90;;
64457;SDS011;58438;51.200;7.252;2023-02-19T15:29:09;24.77;;;10.15;;
64457;SDS011;58438;51.200;7.252;2023-02-19T15:31:59;23.60;;;9.95;;
64457;SDS011;58438;51.200;7.252;2023-02-19T15:34:52;20.10;;;9.50;;
64457;SDS011;58438;51.200;7.252;2023-02-19T15:37:40;19.27;;;8.57;;
64457;SDS011;58438;51.200;7.252;2023-02-19T15:40:28;20.67;;;9.18;;
64457;SDS011;58438;51.200;7.252;2023-02-19T15:43:19;20.80;;;9.18;;
64457;SDS011;58438;51.200;7.252;2023-02-19T15:46:11;17.55;;;8.93;;
64457;SDS011;58438;51.200;7.252;2023-02-19T15:49:05;18.30;;;7.45;;
64457;SDS011;58438;51.200;7.252;2023-02-19T15:51:56;20.38;;;9.18;;
64457;SDS011;58438;51.200;7.252;2023-02-19T15:54:49;20.45;;;8.35;;
64457;SDS011;58438;51.200;7.252;2023-02-19T15:57:41;23.15;;;9.48;;
64457;SDS011;58438;51.200;7.252;2023-02-19T16:00:33;18.90;;;9.77;;
64457;SDS011;58438;51.200;7.252;2023-02-19T16:03:27;16.35;;;10.00;;
64457;SDS011;58438;51.200;7.252;2023-02-19T16:06:16;23.35;;;9.32;;
64457;SDS011;58438;51.200;7.252;2023-02-19T16:09:04;26.08;;;10.43;;
64457;SDS011;58438;51.200;7.252;2023-02-19T16:11:53;22.13;;;9.52;;
64457;SDS011;58438;51.200;7.252;2023-02-19T16:14:42;26.92;;;10.05;;
64457;SDS011;58438;51.200;7.252;2023-02-19T16:17:29;27.65;;;12.25;;
64457;SDS011;58438;51.200;7.252;2023-02-19T16:20:20;27.63;;;12.30;;
64457;SDS011;58438;51.200;7.252;2023-02-19T16:23:10;28.38;;;12.52;;
64457;SDS011;58438;51.200;7.252;2023-02-19T16:26:01;29.17;;;11.52;;
64457;SDS011;58438;51.200;7.252;2023-02-19T16:28:49;23.10;;;11.35;;
64457;SDS011;58438;51.200;7.252;2023-02-19T16:31:36;25.05;;;10.02;;
64457;SDS011;58438;51.200;7.252;2023-02-19T16:34:29;23.48;;;10.30;;
64457;SDS011;58438;51.200;7.252;2023-02-19T16:37:31;20.25;;;9.90;;
64457;SDS011;58438;51.200;7.252;2023-02-19T16:40:52;27.48;;;12.05;;
64457;SDS011;58438;51.200;7.252;2023-02-19T16:43:52;22.40;;;10.32;;
64457;SDS011;58438;51.200;7.252;2023-02-19T16:46:40;24.58;;;10.60;;
64457;SDS011;58438;51.200;7.252;2023-02-19T16:49:27;27.55;;;10.43;;
64457;SDS011;58438;51.200;7.252;2023-02-19T16:52:15;23.50;;;10.73;;
64457;SDS011;58438;51.200;7.252;2023-02-19T16:55:09;25.33;;;10.57;;
64457;SDS011;58438;51.200;7.252;2023-02-19T16:57:59;24.23;;;11.18;;
64457;SDS011;58438;51.200;7.252;2023-02-19T17:00:46;31.92;;;11.68;;
64457;SDS011;58438;51.200;7.252;2023-02-19T17:03:34;23.55;;;10.52;;
64457;SDS011;58438;51.200;7.252;2023-02-19T17:06:24;26.38;;;11.00;;
64457;SDS011;58438;51.200;7.252;2023-02-19T17:09:11;19.77;;;9.18;;
64457;SDS011;58438;51.200;7.252;2023-02-19T17:12:00;21.83;;;9.43;;